LEBLLIPQ

Guest
Details From LEBL - Barcelona El Prat
To LIPQ - Trieste Ronchi Dei Legionari
Flight Number -
Tags Generated
Created
Modified
Stats Distance 564 nm / 1,045 km
Max Altitude 0 ft / 0 m
Waypoints 4
Social Downloads 3
Likes 0
Share VATSIM

Download

Looking for another format? Having issues loading an existing format? Contact us
Advertisement - Login to hide

Notes

Generated

Route

LEBL PIGOS R2800 LIPQ

ID Type Via Altitude Latitude Longitude Leg Dist Tot Dist Heading (true) Name
O LEBL APT - 0 ft / 0 m 41.28777˚ 2.08484˚ - 0 nm - -
PIGOS FIX - 0 ft / 0 m 43.62222˚ 7.37111˚ 272 nm 272 nm 57° / 61° -
R2800 FIX - 0 ft / 0 m 45.82795˚ 13.44993˚ 291 nm 564 nm 61° / 65° -
O LIPQ APT - 0 ft / 0 m 45.82797˚ 13.44736˚ 0 nm 564 nm 270° / 270° -

Altitude Profile

Advertisement - Login to hide

Weather


0- 5 10 15 20 25 30 35+ Temperature / ° C

Clouds and Precipitation
Forecast for 2017-12-14 12:00 UTC. Updated 2 hours ago

Ground ~20,000 ft ~40,000 ft Winds

LEBL

Details ICAO LEBL (BCN)
Name Barcelona - El Prat
Region Spain
Timezone Europe/Madrid (UTC+1.0)
Stats Elevation 14 ft / 4 m (AMSL)
Location 41.295108° 2.088030°
Runways 3
Magnetic Variation 0.820° E

METAR

LEBL 141300Z 33003KT 250V050 9999 FEW030 14/07 Q1014 NOSIG

Decode

TAF

TAF LEBL 141100Z 1412/1512 25012KT 9999 FEW030 TX17/1412Z TN07/1507Z PROB40 TEMPO 1412/1420 25015G25KT BECMG 1510/1512 30012KT

Decode

Departure Runways

ID Width Length Bearing (true) Bearing (mag) Surface Threshold Offset Overrun Length
02 148 ft / 45 m 8,343 ft / 2,543 m 18.93° 18.11° Asphalt 0 ft / 0 m 348 ft / 106 m
07L 197 ft / 60 m 10,983 ft / 3,348 m 65.49° 64.67° Asphalt 1,411 ft / 430 m 1,161 ft / 354 m
07R 197 ft / 60 m 8,718 ft / 2,657 m 65.49° 64.67° Asphalt 0 ft / 0 m 207 ft / 63 m
20 148 ft / 45 m 8,343 ft / 2,543 m 198.93° 198.11° Asphalt 0 ft / 0 m 200 ft / 61 m
25L 197 ft / 60 m 8,718 ft / 2,657 m 245.51° 244.69° Asphalt 0 ft / 0 m 203 ft / 62 m
25R 197 ft / 60 m 10,983 ft / 3,348 m 245.51° 244.69° Asphalt 0 ft / 0 m 522 ft / 159 m

LIPQ

Details ICAO LIPQ (TRS)
Name Ronchi Dei Legionari
Region Italy
Timezone Europe/Rome (UTC+1.0)
Stats Elevation 37 ft / 11 m (AMSL)
Location 45.827857° 13.466663°
Runways 1
Magnetic Variation 3.431° E

METAR

LIPQ 141250Z 36003KT 9999 SCT015 BKN020 07/06 Q1007

Decode

TAF

TAF LIPQ 141100Z 1412/1512 VRB05KT 7000 SCT030 TEMPO 1418/1506 3000 BR

Decode

Destination Runways

ID Width Length Bearing (true) Bearing (mag) Surface Threshold Offset Overrun Length
09 148 ft / 45 m 9,819 ft / 2,993 m 90.42° 86.99° Asphalt 823 ft / 251 m 0 ft / 0 m
27 148 ft / 45 m 9,819 ft / 2,993 m 270.44° 267.01° Asphalt 10 ft / 3 m 190 ft / 58 m

Approach Navaids

Runway Type Ident Frequency Range Bearing (true) Bearing (mag) Slope Elevation
09 Localiser RNC 110.75 MHz 18 nm / 33 km 90.43° 87.00° - 43 ft / 13 m (AMSL)
09 Glidescope RNC 110.75 MHz 10 nm / 19 km 90.43° 87.00° 3.00° 82 ft / 25 m (AMSL)
09 DME RNC 110.75 MHz 18 nm / 33 km - - - 53 ft / 16 m (AMSL)